sensor_id;sensor_type;location;lat;lon;timestamp;temperature;humidity
44223;DHT22;29895;48.804;9.386;2023-11-21T00:01:32;8.30;99.90
44223;DHT22;29895;48.804;9.386;2023-11-21T00:03:58;8.30;99.90
44223;DHT22;29895;48.804;9.386;2023-11-21T00:06:23;8.30;99.90
44223;DHT22;29895;48.804;9.386;2023-11-21T00:08:49;8.30;99.90
44223;DHT22;29895;48.804;9.386;2023-11-21T00:11:14;8.30;99.90
44223;DHT22;29895;48.804;9.386;2023-11-21T00:13:40;8.30;99.90
44223;DHT22;29895;48.804;9.386;2023-11-21T00:16:06;8.30;99.90
44223;DHT22;29895;48.804;9.386;2023-11-21T00:18:32;8.20;99.90
44223;DHT22;29895;48.804;9.386;2023-11-21T00:20:58;8.30;99.90
44223;DHT22;29895;48.804;9.386;2023-11-21T00:23:24;8.30;99.90
44223;DHT22;29895;48.804;9.386;2023-11-21T00:25:50;8.30;99.90
44223;DHT22;29895;48.804;9.386;2023-11-21T00:28:16;8.30;99.90
44223;DHT22;29895;48.804;9.386;2023-11-21T00:30:41;8.30;99.90
44223;DHT22;29895;48.804;9.386;2023-11-21T00:33:07;8.30;99.90
44223;DHT22;29895;48.804;9.386;2023-11-21T00:35:33;8.30;99.90
44223;DHT22;29895;48.804;9.386;2023-11-21T00:37:58;8.30;99.90
44223;DHT22;29895;48.804;9.386;2023-11-21T00:40:24;8.30;99.90
44223;DHT22;29895;48.804;9.386;2023-11-21T00:42:50;8.40;99.90
44223;DHT22;29895;48.804;9.386;2023-11-21T00:45:16;8.50;99.90
44223;DHT22;29895;48.804;9.386;2023-11-21T00:47:41;8.40;99.90
44223;DHT22;29895;48.804;9.386;2023-11-21T00:50:08;8.40;99.90
44223;DHT22;29895;48.804;9.386;2023-11-21T00:52:34;8.40;99.90
44223;DHT22;29895;48.804;9.386;2023-11-21T00:55:01;8.40;99.90
44223;DHT22;29895;48.804;9.386;2023-11-21T00:57:28;8.50;99.90
44223;DHT22;29895;48.804;9.386;2023-11-21T00:59:54;8.40;99.90
44223;DHT22;29895;48.804;9.386;2023-11-21T01:02:20;8.50;99.90
44223;DHT22;29895;48.804;9.386;2023-11-21T01:04:45;8.40;99.90
44223;DHT22;29895;48.804;9.386;2023-11-21T01:07:13;8.50;99.90
44223;DHT22;29895;48.804;9.386;2023-11-21T01:09:38;8.50;99.90
44223;DHT22;29895;48.804;9.386;2023-11-21T01:12:04;8.60;99.90
44223;DHT22;29895;48.804;9.386;2023-11-21T01:14:30;8.60;99.90
44223;DHT22;29895;48.804;9.386;2023-11-21T01:16:56;8.60;99.90
44223;DHT22;29895;48.804;9.386;2023-11-21T01:19:21;8.60;99.90
44223;DHT22;29895;48.804;9.386;2023-11-21T01:21:47;8.70;99.90
44223;DHT22;29895;48.804;9.386;2023-11-21T01:24:12;8.70;99.90
44223;DHT22;29895;48.804;9.386;2023-11-21T01:26:38;8.80;99.90
44223;DHT22;29895;48.804;9.386;2023-11-21T01:29:04;8.80;99.90
44223;DHT22;29895;48.804;9.386;2023-11-21T01:31:30;8.80;99.90
44223;DHT22;29895;48.804;9.386;2023-11-21T01:33:56;8.90;99.90
44223;DHT22;29895;48.804;9.386;2023-11-21T01:36:21;8.90;99.90
44223;DHT22;29895;48.804;9.386;2023-11-21T01:38:47;8.90;99.90
44223;DHT22;29895;48.804;9.386;2023-11-21T01:41:16;8.90;99.90
44223;DHT22;29895;48.804;9.386;2023-11-21T01:43:41;8.90;99.90
44223;DHT22;29895;48.804;9.386;2023-11-21T01:46:08;8.80;99.90
44223;DHT22;29895;48.804;9.386;2023-11-21T01:48:34;8.80;99.90
44223;DHT22;29895;48.804;9.386;2023-11-21T01:51:01;8.70;99.90
44223;DHT22;29895;48.804;9.386;2023-11-21T01:53:27;8.70;99.90
44223;DHT22;29895;48.804;9.386;2023-11-21T01:55:55;8.70;99.90
44223;DHT22;29895;48.804;9.386;2023-11-21T01:58:21;8.70;99.90
44223;DHT22;29895;48.804;9.386;2023-11-21T02:00:47;8.60;99.90
44223;DHT22;29895;48.804;9.386;2023-11-21T02:03:16;8.60;99.90
44223;DHT22;29895;48.804;9.386;2023-11-21T02:05:42;8.60;99.90
44223;DHT22;29895;48.804;9.386;2023-11-21T02:08:07;8.60;99.90
44223;DHT22;29895;48.804;9.386;2023-11-21T02:10:35;8.60;99.90
44223;DHT22;29895;48.804;9.386;2023-11-21T02:13:02;8.60;99.90
44223;DHT22;29895;48.804;9.386;2023-11-21T02:15:28;8.60;99.90
44223;DHT22;29895;48.804;9.386;2023-11-21T02:17:54;8.60;99.90
44223;DHT22;29895;48.804;9.386;2023-11-21T02:20:21;8.60;99.90
44223;DHT22;29895;48.804;9.386;2023-11-21T02:22:51;8.60;99.90
44223;DHT22;29895;48.804;9.386;2023-11-21T02:25:32;8.60;99.90
44223;DHT22;29895;48.804;9.386;2023-11-21T02:28:01;8.60;99.90
44223;DHT22;29895;48.804;9.386;2023-11-21T02:30:28;8.60;99.90
44223;DHT22;29895;48.804;9.386;2023-11-21T02:32:55;8.60;99.90
44223;DHT22;29895;48.804;9.386;2023-11-21T02:35:22;8.70;99.90
44223;DHT22;29895;48.804;9.386;2023-11-21T02:37:48;8.70;99.90
44223;DHT22;29895;48.804;9.386;2023-11-21T02:40:14;8.70;99.90
44223;DHT22;29895;48.804;9.386;2023-11-21T02:42:52;8.70;99.90
44223;DHT22;29895;48.804;9.386;2023-11-21T02:45:19;8.70;99.90
44223;DHT22;29895;48.804;9.386;2023-11-21T02:47:46;8.60;99.90
44223;DHT22;29895;48.804;9.386;2023-11-21T02:50:12;8.60;99.90
44223;DHT22;29895;48.804;9.386;2023-11-21T02:52:38;8.70;99.90
44223;DHT22;29895;48.804;9.386;2023-11-21T02:55:06;8.70;99.90
44223;DHT22;29895;48.804;9.386;2023-11-21T02:57:32;8.70;99.90
44223;DHT22;29895;48.804;9.386;2023-11-21T02:59:59;8.70;99.90
44223;DHT22;29895;48.804;9.386;2023-11-21T03:02:25;8.70;99.90
44223;DHT22;29895;48.804;9.386;2023-11-21T03:04:51;8.80;99.90
44223;DHT22;29895;48.804;9.386;2023-11-21T03:07:17;8.70;99.90
44223;DHT22;29895;48.804;9.386;2023-11-21T03:09:45;8.70;99.90
44223;DHT22;29895;48.804;9.386;2023-11-21T03:12:11;8.80;99.90
44223;DHT22;29895;48.804;9.386;2023-11-21T03:14:38;8.80;99.90
44223;DHT22;29895;48.804;9.386;2023-11-21T03:17:04;8.80;99.90
44223;DHT22;29895;48.804;9.386;2023-11-21T03:19:30;8.80;99.90
44223;DHT22;29895;48.804;9.386;2023-11-21T03:21:56;8.80;99.90
44223;DHT22;29895;48.804;9.386;2023-11-21T03:24:22;8.80;99.90
44223;DHT22;29895;48.804;9.386;2023-11-21T03:26:48;8.80;99.90
44223;DHT22;29895;48.804;9.386;2023-11-21T03:29:14;8.80;99.90
44223;DHT22;29895;48.804;9.386;2023-11-21T03:31:40;8.90;99.90
44223;DHT22;29895;48.804;9.386;2023-11-21T03:34:06;8.90;99.90
44223;DHT22;29895;48.804;9.386;2023-11-21T03:36:32;8.90;99.90
44223;DHT22;29895;48.804;9.386;2023-11-21T03:38:57;8.90;99.90
44223;DHT22;29895;48.804;9.386;2023-11-21T03:41:23;8.80;99.90
44223;DHT22;29895;48.804;9.386;2023-11-21T03:43:48;8.80;99.90
44223;DHT22;29895;48.804;9.386;2023-11-21T03:46:14;8.70;99.90
44223;DHT22;29895;48.804;9.386;2023-11-21T03:48:40;8.70;99.90
44223;DHT22;29895;48.804;9.386;2023-11-21T03:51:06;8.80;99.90
44223;DHT22;29895;48.804;9.386;2023-11-21T03:53:32;8.80;99.90
44223;DHT22;29895;48.804;9.386;2023-11-21T03:55:57;8.80;99.90
44223;DHT22;29895;48.804;9.386;2023-11-21T03:58:23;8.80;99.90
44223;DHT22;29895;48.804;9.386;2023-11-21T04:00:49;8.90;99.90
44223;DHT22;29895;48.804;9.386;2023-11-21T04:03:14;8.90;99.90
44223;DHT22;29895;48.804;9.386;2023-11-21T04:05:41;8.90;99.90
44223;DHT22;29895;48.804;9.386;2023-11-21T04:08:06;8.90;99.90
44223;DHT22;29895;48.804;9.386;2023-11-21T04:10:32;8.90;99.90
44223;DHT22;29895;48.804;9.386;2023-11-21T04:12:58;8.90;99.90
44223;DHT22;29895;48.804;9.386;2023-11-21T04:15:24;8.80;99.90
44223;DHT22;29895;48.804;9.386;2023-11-21T04:17:49;8.80;99.90
44223;DHT22;29895;48.804;9.386;2023-11-21T04:20:15;8.70;99.90
44223;DHT22;29895;48.804;9.386;2023-11-21T04:22:43;8.70;99.90
44223;DHT22;29895;48.804;9.386;2023-11-21T04:25:13;8.80;99.90
44223;DHT22;29895;48.804;9.386;2023-11-21T04:27:40;8.70;99.90
44223;DHT22;29895;48.804;9.386;2023-11-21T04:30:06;8.70;99.90
44223;DHT22;29895;48.804;9.386;2023-11-21T04:32:33;8.70;99.90
44223;DHT22;29895;48.804;9.386;2023-11-21T04:34:59;8.70;99.90
44223;DHT22;29895;48.804;9.386;2023-11-21T04:37:24;8.70;99.90
44223;DHT22;29895;48.804;9.386;2023-11-21T04:39:50;8.70;99.90
44223;DHT22;29895;48.804;9.386;2023-11-21T04:42:16;8.70;99.90
44223;DHT22;29895;48.804;9.386;2023-11-21T04:44:41;8.60;99.90
44223;DHT22;29895;48.804;9.386;2023-11-21T04:47:07;8.60;99.90
44223;DHT22;29895;48.804;9.386;2023-11-21T04:49:33;8.50;99.90
44223;DHT22;29895;48.804;9.386;2023-11-21T04:51:59;8.40;99.90
44223;DHT22;29895;48.804;9.386;2023-11-21T04:54:24;8.40;99.90
44223;DHT22;29895;48.804;9.386;2023-11-21T04:56:50;8.40;99.90
44223;DHT22;29895;48.804;9.386;2023-11-21T04:59:16;8.30;99.90
44223;DHT22;29895;48.804;9.386;2023-11-21T05:01:41;8.30;99.90
44223;DHT22;29895;48.804;9.386;2023-11-21T05:04:07;8.30;99.90
44223;DHT22;29895;48.804;9.386;2023-11-21T05:06:34;8.30;99.90
44223;DHT22;29895;48.804;9.386;2023-11-21T05:09:00;8.20;99.90
44223;DHT22;29895;48.804;9.386;2023-11-21T05:11:27;8.20;99.90
44223;DHT22;29895;48.804;9.386;2023-11-21T05:13:53;8.20;99.90
44223;DHT22;29895;48.804;9.386;2023-11-21T05:16:22;8.30;99.90
44223;DHT22;29895;48.804;9.386;2023-11-21T05:18:48;8.30;99.90
44223;DHT22;29895;48.804;9.386;2023-11-21T05:21:16;8.30;99.90
44223;DHT22;29895;48.804;9.386;2023-11-21T05:23:41;8.40;99.90
44223;DHT22;29895;48.804;9.386;2023-11-21T05:26:07;8.30;99.90
44223;DHT22;29895;48.804;9.386;2023-11-21T05:28:32;8.40;99.90
44223;DHT22;29895;48.804;9.386;2023-11-21T05:30:58;8.40;99.90
44223;DHT22;29895;48.804;9.386;2023-11-21T05:33:24;8.40;99.90
44223;DHT22;29895;48.804;9.386;2023-11-21T05:35:50;8.40;99.90
44223;DHT22;29895;48.804;9.386;2023-11-21T05:38:16;8.30;99.90
44223;DHT22;29895;48.804;9.386;2023-11-21T05:40:41;8.30;99.90
44223;DHT22;29895;48.804;9.386;2023-11-21T05:43:07;8.30;99.90
44223;DHT22;29895;48.804;9.386;2023-11-21T05:45:33;8.30;99.90
44223;DHT22;29895;48.804;9.386;2023-11-21T05:47:58;8.40;99.90
44223;DHT22;29895;48.804;9.386;2023-11-21T05:50:24;8.40;99.90
44223;DHT22;29895;48.804;9.386;2023-11-21T05:52:50;8.40;99.90
44223;DHT22;29895;48.804;9.386;2023-11-21T05:55:16;8.40;99.90
44223;DHT22;29895;48.804;9.386;2023-11-21T05:57:43;8.40;99.90
44223;DHT22;29895;48.804;9.386;2023-11-21T06:00:12;8.40;99.90
44223;DHT22;29895;48.804;9.386;2023-11-21T06:02:41;8.40;99.90
44223;DHT22;29895;48.804;9.386;2023-11-21T06:05:08;8.40;99.90
44223;DHT22;29895;48.804;9.386;2023-11-21T06:07:34;8.30;99.90
44223;DHT22;29895;48.804;9.386;2023-11-21T06:10:01;8.20;99.90
44223;DHT22;29895;48.804;9.386;2023-11-21T06:12:28;8.20;99.90
44223;DHT22;29895;48.804;9.386;2023-11-21T06:14:54;8.30;99.90
44223;DHT22;29895;48.804;9.386;2023-11-21T06:17:21;8.40;99.90
44223;DHT22;29895;48.804;9.386;2023-11-21T06:19:47;8.40;99.90
44223;DHT22;29895;48.804;9.386;2023-11-21T06:22:12;8.30;99.90
44223;DHT22;29895;48.804;9.386;2023-11-21T06:24:38;8.30;99.90
44223;DHT22;29895;48.804;9.386;2023-11-21T06:27:04;8.30;99.90
44223;DHT22;29895;48.804;9.386;2023-11-21T06:29:30;8.30;99.90
44223;DHT22;29895;48.804;9.386;2023-11-21T06:31:57;8.30;99.90
44223;DHT22;29895;48.804;9.386;2023-11-21T06:34:23;8.30;99.90
44223;DHT22;29895;48.804;9.386;2023-11-21T06:36:49;8.30;99.90
44223;DHT22;29895;48.804;9.386;2023-11-21T06:39:15;8.30;99.90
44223;DHT22;29895;48.804;9.386;2023-11-21T06:41:42;8.30;99.90
44223;DHT22;29895;48.804;9.386;2023-11-21T06:44:08;8.30;99.90
44223;DHT22;29895;48.804;9.386;2023-11-21T06:46:34;8.30;99.90
44223;DHT22;29895;48.804;9.386;2023-11-21T06:49:00;8.30;99.90
44223;DHT22;29895;48.804;9.386;2023-11-21T06:51:25;8.40;99.90
44223;DHT22;29895;48.804;9.386;2023-11-21T06:53:51;8.40;99.90
44223;DHT22;29895;48.804;9.386;2023-11-21T06:56:20;8.40;99.90
44223;DHT22;29895;48.804;9.386;2023-11-21T06:58:45;8.40;99.90
44223;DHT22;29895;48.804;9.386;2023-11-21T07:01:12;8.40;99.90
44223;DHT22;29895;48.804;9.386;2023-11-21T07:03:39;8.40;99.90
44223;DHT22;29895;48.804;9.386;2023-11-21T07:06:06;8.40;99.90
44223;DHT22;29895;48.804;9.386;2023-11-21T07:08:33;8.40;99.90
44223;DHT22;29895;48.804;9.386;2023-11-21T07:10:58;8.40;99.90
44223;DHT22;29895;48.804;9.386;2023-11-21T07:13:24;8.40;99.90
44223;DHT22;29895;48.804;9.386;2023-11-21T07:15:49;8.40;99.90
44223;DHT22;29895;48.804;9.386;2023-11-21T07:18:15;8.40;99.90
44223;DHT22;29895;48.804;9.386;2023-11-21T07:20:41;8.40;99.90
44223;DHT22;29895;48.804;9.386;2023-11-21T07:23:06;8.50;99.90
44223;DHT22;29895;48.804;9.386;2023-11-21T07:25:32;8.50;99.90
44223;DHT22;29895;48.804;9.386;2023-11-21T07:27:59;8.60;99.90
44223;DHT22;29895;48.804;9.386;2023-11-21T07:30:26;8.60;99.90
44223;DHT22;29895;48.804;9.386;2023-11-21T07:32:52;8.60;99.90
44223;DHT22;29895;48.804;9.386;2023-11-21T07:35:18;8.70;99.90
44223;DHT22;29895;48.804;9.386;2023-11-21T07:37:43;8.70;99.90
44223;DHT22;29895;48.804;9.386;2023-11-21T07:40:09;8.70;99.90
44223;DHT22;29895;48.804;9.386;2023-11-21T07:42:37;8.80;99.90
44223;DHT22;29895;48.804;9.386;2023-11-21T07:45:04;8.80;99.90
44223;DHT22;29895;48.804;9.386;2023-11-21T07:47:29;8.80;99.90
44223;DHT22;29895;48.804;9.386;2023-11-21T07:49:55;8.90;99.90
44223;DHT22;29895;48.804;9.386;2023-11-21T07:52:24;8.90;99.90
44223;DHT22;29895;48.804;9.386;2023-11-21T07:54:49;9.00;99.90
44223;DHT22;29895;48.804;9.386;2023-11-21T07:57:16;9.00;99.90
44223;DHT22;29895;48.804;9.386;2023-11-21T07:59:42;9.10;99.90
44223;DHT22;29895;48.804;9.386;2023-11-21T08:02:07;9.10;99.90
44223;DHT22;29895;48.804;9.386;2023-11-21T08:04:33;9.10;99.90
44223;DHT22;29895;48.804;9.386;2023-11-21T08:07:01;9.20;99.90
44223;DHT22;29895;48.804;9.386;2023-11-21T08:09:27;9.20;99.90
44223;DHT22;29895;48.804;9.386;2023-11-21T08:11:53;9.20;99.90
44223;DHT22;29895;48.804;9.386;2023-11-21T08:14:19;9.30;99.90
44223;DHT22;29895;48.804;9.386;2023-11-21T08:16:45;9.30;99.90
44223;DHT22;29895;48.804;9.386;2023-11-21T08:19:11;9.30;99.90
44223;DHT22;29895;48.804;9.386;2023-11-21T08:21:37;9.40;99.90
44223;DHT22;29895;48.804;9.386;2023-11-21T08:24:08;9.40;99.90
44223;DHT22;29895;48.804;9.386;2023-11-21T08:26:36;9.40;99.90
44223;DHT22;29895;48.804;9.386;2023-11-21T08:29:02;9.40;99.90
44223;DHT22;29895;48.804;9.386;2023-11-21T08:31:28;9.40;99.90
44223;DHT22;29895;48.804;9.386;2023-11-21T08:33:55;9.30;99.90
44223;DHT22;29895;48.804;9.386;2023-11-21T08:36:23;9.30;99.90
44223;DHT22;29895;48.804;9.386;2023-11-21T08:38:50;9.30;99.90
44223;DHT22;29895;48.804;9.386;2023-11-21T08:41:17;9.30;99.90
44223;DHT22;29895;48.804;9.386;2023-11-21T08:43:48;9.30;99.90
44223;DHT22;29895;48.804;9.386;2023-11-21T08:46:14;9.40;99.90
44223;DHT22;29895;48.804;9.386;2023-11-21T08:48:40;9.30;99.90
44223;DHT22;29895;48.804;9.386;2023-11-21T08:51:06;9.30;99.90
44223;DHT22;29895;48.804;9.386;2023-11-21T08:53:32;9.30;99.90
44223;DHT22;29895;48.804;9.386;2023-11-21T08:55:58;9.30;99.90
44223;DHT22;29895;48.804;9.386;2023-11-21T08:58:24;9.30;99.90
44223;DHT22;29895;48.804;9.386;2023-11-21T09:00:49;9.40;99.90
44223;DHT22;29895;48.804;9.386;2023-11-21T09:03:15;9.40;99.90
44223;DHT22;29895;48.804;9.386;2023-11-21T09:05:41;9.40;99.90
44223;DHT22;29895;48.804;9.386;2023-11-21T09:08:06;9.40;99.90
44223;DHT22;29895;48.804;9.386;2023-11-21T09:10:35;9.40;99.90
44223;DHT22;29895;48.804;9.386;2023-11-21T09:13:04;9.40;99.90
44223;DHT22;29895;48.804;9.386;2023-11-21T09:15:30;9.60;99.90
44223;DHT22;29895;48.804;9.386;2023-11-21T09:17:56;9.70;99.90
44223;DHT22;29895;48.804;9.386;2023-11-21T09:20:21;9.80;99.90
44223;DHT22;29895;48.804;9.386;2023-11-21T09:22:48;9.90;99.90
44223;DHT22;29895;48.804;9.386;2023-11-21T09:25:14;10.00;99.90
44223;DHT22;29895;48.804;9.386;2023-11-21T09:27:40;10.10;99.90
44223;DHT22;29895;48.804;9.386;2023-11-21T09:30:07;10.30;99.90
44223;DHT22;29895;48.804;9.386;2023-11-21T09:32:37;10.30;99.90
44223;DHT22;29895;48.804;9.386;2023-11-21T09:35:04;10.30;99.90
44223;DHT22;29895;48.804;9.386;2023-11-21T09:37:31;10.30;99.90
44223;DHT22;29895;48.804;9.386;2023-11-21T09:39:56;10.30;99.90
44223;DHT22;29895;48.804;9.386;2023-11-21T09:42:32;10.30;99.90
44223;DHT22;29895;48.804;9.386;2023-11-21T09:45:18;10.30;99.90
44223;DHT22;29895;48.804;9.386;2023-11-21T09:47:46;10.30;99.90
44223;DHT22;29895;48.804;9.386;2023-11-21T09:50:16;10.20;99.90
44223;DHT22;29895;48.804;9.386;2023-11-21T09:53:21;10.10;99.90
44223;DHT22;29895;48.804;9.386;2023-11-21T09:55:53;10.10;99.90
44223;DHT22;29895;48.804;9.386;2023-11-21T09:58:19;10.10;99.90
44223;DHT22;29895;48.804;9.386;2023-11-21T10:00:46;10.10;99.90
44223;DHT22;29895;48.804;9.386;2023-11-21T10:03:13;10.30;99.90
44223;DHT22;29895;48.804;9.386;2023-11-21T10:05:40;10.50;99.90
44223;DHT22;29895;48.804;9.386;2023-11-21T10:08:10;10.80;99.90
44223;DHT22;29895;48.804;9.386;2023-11-21T10:10:43;11.00;99.90
44223;DHT22;29895;48.804;9.386;2023-11-21T10:13:14;11.20;99.90
44223;DHT22;29895;48.804;9.386;2023-11-21T10:15:42;11.20;99.90
44223;DHT22;29895;48.804;9.386;2023-11-21T10:18:13;11.30;99.90
44223;DHT22;29895;48.804;9.386;2023-11-21T10:20:40;11.30;99.90
44223;DHT22;29895;48.804;9.386;2023-11-21T10:23:07;11.30;99.90
44223;DHT22;29895;48.804;9.386;2023-11-21T10:25:37;11.30;99.90
44223;DHT22;29895;48.804;9.386;2023-11-21T10:28:03;11.10;99.90
44223;DHT22;29895;48.804;9.386;2023-11-21T10:30:34;11.00;99.90
44223;DHT22;29895;48.804;9.386;2023-11-21T10:33:02;10.90;99.90
44223;DHT22;29895;48.804;9.386;2023-11-21T10:35:48;10.90;99.90
44223;DHT22;29895;48.804;9.386;2023-11-21T10:38:22;10.80;99.90
44223;DHT22;29895;48.804;9.386;2023-11-21T10:40:49;10.70;99.90
44223;DHT22;29895;48.804;9.386;2023-11-21T10:43:15;10.70;99.90
44223;DHT22;29895;48.804;9.386;2023-11-21T10:45:42;10.60;99.90
44223;DHT22;29895;48.804;9.386;2023-11-21T10:48:09;10.60;99.90
44223;DHT22;29895;48.804;9.386;2023-11-21T10:50:36;10.60;99.90
44223;DHT22;29895;48.804;9.386;2023-11-21T10:53:03;10.70;99.90
44223;DHT22;29895;48.804;9.386;2023-11-21T10:55:30;10.80;99.90
44223;DHT22;29895;48.804;9.386;2023-11-21T10:57:59;10.80;99.90
44223;DHT22;29895;48.804;9.386;2023-11-21T11:00:26;10.80;99.90
44223;DHT22;29895;48.804;9.386;2023-11-21T11:02:53;10.90;99.90
44223;DHT22;29895;48.804;9.386;2023-11-21T11:05:22;11.00;99.90
44223;DHT22;29895;48.804;9.386;2023-11-21T11:07:51;11.00;99.90
44223;DHT22;29895;48.804;9.386;2023-11-21T11:10:28;11.10;99.90
44223;DHT22;29895;48.804;9.386;2023-11-21T11:12:55;11.20;99.90
44223;DHT22;29895;48.804;9.386;2023-11-21T11:15:23;11.40;99.90
44223;DHT22;29895;48.804;9.386;2023-11-21T11:17:48;11.50;99.90
44223;DHT22;29895;48.804;9.386;2023-11-21T11:20:16;11.70;99.90
44223;DHT22;29895;48.804;9.386;2023-11-21T11:28:47;11.20;99.90
44223;DHT22;29895;48.804;9.386;2023-11-21T11:33:58;10.40;99.90
44223;DHT22;29895;48.804;9.386;2023-11-21T11:36:48;10.10;99.90
44223;DHT22;29895;48.804;9.386;2023-11-21T11:39:30;9.90;99.90
44223;DHT22;29895;48.804;9.386;2023-11-21T11:41:58;9.70;99.90
44223;DHT22;29895;48.804;9.386;2023-11-21T11:47:32;9.60;99.90
44223;DHT22;29895;48.804;9.386;2023-11-21T11:50:11;9.70;99.90
44223;DHT22;29895;48.804;9.386;2023-11-21T11:52:45;9.60;99.90
44223;DHT22;29895;48.804;9.386;2023-11-21T11:55:12;9.60;99.90
44223;DHT22;29895;48.804;9.386;2023-11-21T11:57:46;9.60;99.90
44223;DHT22;29895;48.804;9.386;2023-11-21T12:02:56;9.60;99.90
44223;DHT22;29895;48.804;9.386;2023-11-21T12:05:26;9.70;99.90
44223;DHT22;29895;48.804;9.386;2023-11-21T12:07:56;9.70;99.90
44223;DHT22;29895;48.804;9.386;2023-11-21T12:10:23;9.80;99.90
44223;DHT22;29895;48.804;9.386;2023-11-21T12:12:57;9.90;99.90
44223;DHT22;29895;48.804;9.386;2023-11-21T12:15:24;10.00;99.90
44223;DHT22;29895;48.804;9.386;2023-11-21T12:17:51;10.10;99.90
44223;DHT22;29895;48.804;9.386;2023-11-21T12:20:24;10.30;99.90
44223;DHT22;29895;48.804;9.386;2023-11-21T12:22:52;10.40;99.90
44223;DHT22;29895;48.804;9.386;2023-11-21T12:25:26;10.50;99.90
44223;DHT22;29895;48.804;9.386;2023-11-21T12:27:58;10.70;99.90
44223;DHT22;29895;48.804;9.386;2023-11-21T12:30:32;10.80;99.90
44223;DHT22;29895;48.804;9.386;2023-11-21T12:32:59;11.00;99.90
44223;DHT22;29895;48.804;9.386;2023-11-21T12:35:33;11.20;99.90
44223;DHT22;29895;48.804;9.386;2023-11-21T12:38:03;11.20;99.90
44223;DHT22;29895;48.804;9.386;2023-11-21T12:40:29;11.30;99.90
44223;DHT22;29895;48.804;9.386;2023-11-21T12:42:57;11.30;99.90
44223;DHT22;29895;48.804;9.386;2023-11-21T12:45:25;11.00;99.90
44223;DHT22;29895;48.804;9.386;2023-11-21T12:50:23;10.80;99.90
44223;DHT22;29895;48.804;9.386;2023-11-21T12:52:51;10.70;99.90
44223;DHT22;29895;48.804;9.386;2023-11-21T12:55:21;10.60;99.90
44223;DHT22;29895;48.804;9.386;2023-11-21T12:57:54;10.50;99.90
44223;DHT22;29895;48.804;9.386;2023-11-21T13:00:28;10.40;99.90
44223;DHT22;29895;48.804;9.386;2023-11-21T13:02:55;10.30;99.90
44223;DHT22;29895;48.804;9.386;2023-11-21T13:05:45;10.20;99.90
44223;DHT22;29895;48.804;9.386;2023-11-21T13:08:13;10.20;99.90
44223;DHT22;29895;48.804;9.386;2023-11-21T13:10:44;10.40;99.90
44223;DHT22;29895;48.804;9.386;2023-11-21T13:13:12;10.50;99.90
44223;DHT22;29895;48.804;9.386;2023-11-21T13:18:18;10.80;99.90
44223;DHT22;29895;48.804;9.386;2023-11-21T13:20:44;10.90;99.90
44223;DHT22;29895;48.804;9.386;2023-11-21T13:23:12;10.90;99.90
44223;DHT22;29895;48.804;9.386;2023-11-21T13:25:41;10.90;99.90
44223;DHT22;29895;48.804;9.386;2023-11-21T13:28:07;10.80;99.90
44223;DHT22;29895;48.804;9.386;2023-11-21T13:30:33;10.70;99.90
44223;DHT22;29895;48.804;9.386;2023-11-21T13:33:03;10.40;99.90
44223;DHT22;29895;48.804;9.386;2023-11-21T13:35:34;10.40;99.90
44223;DHT22;29895;48.804;9.386;2023-11-21T13:40:36;10.40;99.90
44223;DHT22;29895;48.804;9.386;2023-11-21T13:43:11;10.40;99.90
44223;DHT22;29895;48.804;9.386;2023-11-21T13:45:41;10.50;99.90
44223;DHT22;29895;48.804;9.386;2023-11-21T13:48:08;10.60;99.90
44223;DHT22;29895;48.804;9.386;2023-11-21T13:50:41;10.50;99.90
44223;DHT22;29895;48.804;9.386;2023-11-21T13:53:19;10.50;99.90
44223;DHT22;29895;48.804;9.386;2023-11-21T13:55:51;10.50;99.90
44223;DHT22;29895;48.804;9.386;2023-11-21T13:58:20;10.50;99.90
44223;DHT22;29895;48.804;9.386;2023-11-21T14:00:53;10.40;99.90
44223;DHT22;29895;48.804;9.386;2023-11-21T14:03:25;10.30;99.90
44223;DHT22;29895;48.804;9.386;2023-11-21T14:05:58;10.30;99.90
44223;DHT22;29895;48.804;9.386;2023-11-21T14:08:26;10.20;99.90
44223;DHT22;29895;48.804;9.386;2023-11-21T14:10:57;10.10;99.90
44223;DHT22;29895;48.804;9.386;2023-11-21T14:13:25;10.10;99.90
44223;DHT22;29895;48.804;9.386;2023-11-21T14:15:51;10.00;99.90
44223;DHT22;29895;48.804;9.386;2023-11-21T14:18:23;9.90;99.90
44223;DHT22;29895;48.804;9.386;2023-11-21T14:20:52;9.80;99.90
44223;DHT22;29895;48.804;9.386;2023-11-21T14:23:18;9.80;99.90
44223;DHT22;29895;48.804;9.386;2023-11-21T14:25:44;9.80;99.90
44223;DHT22;29895;48.804;9.386;2023-11-21T14:28:09;9.80;99.90
44223;DHT22;29895;48.804;9.386;2023-11-21T14:30:37;9.80;99.90
44223;DHT22;29895;48.804;9.386;2023-11-21T14:33:05;9.80;99.90
44223;DHT22;29895;48.804;9.386;2023-11-21T14:35:31;9.80;99.90
44223;DHT22;29895;48.804;9.386;2023-11-21T14:37:58;9.90;99.90
44223;DHT22;29895;48.804;9.386;2023-11-21T14:40:25;9.80;99.90
44223;DHT22;29895;48.804;9.386;2023-11-21T14:42:51;9.80;99.90
44223;DHT22;29895;48.804;9.386;2023-11-21T14:45:21;9.90;99.90
44223;DHT22;29895;48.804;9.386;2023-11-21T14:47:48;9.90;99.90
44223;DHT22;29895;48.804;9.386;2023-11-21T14:50:41;9.90;99.90
44223;DHT22;29895;48.804;9.386;2023-11-21T14:53:11;9.90;99.90
44223;DHT22;29895;48.804;9.386;2023-11-21T14:55:39;10.00;99.90
44223;DHT22;29895;48.804;9.386;2023-11-21T14:58:18;10.00;99.90
44223;DHT22;29895;48.804;9.386;2023-11-21T15:00:56;10.00;99.90
44223;DHT22;29895;48.804;9.386;2023-11-21T15:03:27;9.90;99.90
44223;DHT22;29895;48.804;9.386;2023-11-21T15:05:59;9.80;99.90
44223;DHT22;29895;48.804;9.386;2023-11-21T15:08:37;9.80;99.90
44223;DHT22;29895;48.804;9.386;2023-11-21T15:11:03;9.80;99.90
44223;DHT22;29895;48.804;9.386;2023-11-21T15:13:32;9.80;99.90
44223;DHT22;29895;48.804;9.386;2023-11-21T15:15:58;9.70;99.90
44223;DHT22;29895;48.804;9.386;2023-11-21T15:18:33;9.80;99.90
44223;DHT22;29895;48.804;9.386;2023-11-21T15:20:59;9.80;99.90
44223;DHT22;29895;48.804;9.386;2023-11-21T15:23:25;9.70;99.90
44223;DHT22;29895;48.804;9.386;2023-11-21T15:25:53;9.70;99.90
44223;DHT22;29895;48.804;9.386;2023-11-21T15:28:19;9.70;99.90
44223;DHT22;29895;48.804;9.386;2023-11-21T15:30:45;9.60;99.90
44223;DHT22;29895;48.804;9.386;2023-11-21T15:33:13;9.60;99.90
44223;DHT22;29895;48.804;9.386;2023-11-21T15:35:39;9.60;99.90
44223;DHT22;29895;48.804;9.386;2023-11-21T15:38:06;9.60;99.90
44223;DHT22;29895;48.804;9.386;2023-11-21T15:40:33;9.50;99.90
44223;DHT22;29895;48.804;9.386;2023-11-21T15:42:59;9.50;99.90
44223;DHT22;29895;48.804;9.386;2023-11-21T15:45:25;9.50;99.90
44223;DHT22;29895;48.804;9.386;2023-11-21T15:47:51;9.50;99.90
44223;DHT22;29895;48.804;9.386;2023-11-21T15:50:19;9.50;99.90
44223;DHT22;29895;48.804;9.386;2023-11-21T15:52:44;9.40;99.90
44223;DHT22;29895;48.804;9.386;2023-11-21T15:55:11;9.40;99.90
44223;DHT22;29895;48.804;9.386;2023-11-21T15:57:36;9.40;99.90
44223;DHT22;29895;48.804;9.386;2023-11-21T16:00:02;9.40;99.90
44223;DHT22;29895;48.804;9.386;2023-11-21T16:02:36;9.30;99.90
44223;DHT22;29895;48.804;9.386;2023-11-21T16:05:04;9.30;99.90
44223;DHT22;29895;48.804;9.386;2023-11-21T16:07:30;9.30;99.90